createdAt,value
2024-05-09T00:01:08.221Z,12.00
2024-05-09T00:05:12.307Z,12.00
2024-05-09T00:09:13.481Z,12.00
2024-05-09T00:13:14.712Z,11.90
2024-05-09T00:17:15.972Z,11.80
2024-05-09T00:21:17.207Z,11.40
2024-05-09T00:25:18.174Z,11.60
2024-05-09T00:29:19.226Z,11.60
2024-05-09T00:33:20.674Z,11.80
2024-05-09T00:37:21.974Z,11.70
2024-05-09T00:41:23.075Z,11.60
2024-05-09T00:45:24.018Z,11.60
2024-05-09T00:49:26.121Z,11.50
2024-05-09T00:53:27.787Z,11.40
2024-05-09T00:57:29.203Z,11.50
2024-05-09T01:01:30.948Z,11.10
2024-05-09T01:05:33.679Z,11.50
2024-05-09T01:09:34.823Z,10.90
2024-05-09T01:13:35.920Z,11.50
2024-05-09T01:17:37.344Z,11.60
2024-05-09T01:21:40.790Z,11.10
2024-05-09T01:25:42.028Z,11.60
2024-05-09T01:29:43.106Z,11.40
2024-05-09T01:33:44.394Z,11.40
2024-05-09T01:37:45.600Z,11.30
2024-05-09T01:41:46.542Z,11.20
2024-05-09T01:45:47.548Z,11.20
2024-05-09T01:49:48.694Z,11.10
2024-05-09T01:53:49.831Z,11.10
2024-05-09T01:57:51.018Z,10.90
2024-05-09T02:01:56.852Z,10.90
2024-05-09T02:05:55.016Z,10.80
2024-05-09T02:09:55.955Z,11.00
2024-05-09T02:13:57.088Z,11.00
2024-05-09T02:17:58.294Z,11.00
2024-05-09T02:21:59.464Z,10.90
2024-05-09T02:26:00.767Z,10.90
2024-05-09T02:30:01.792Z,10.80
2024-05-09T02:34:03.236Z,10.70
2024-05-09T02:38:04.438Z,10.70
2024-05-09T02:42:05.481Z,10.60
2024-05-09T02:46:06.893Z,10.60
2024-05-09T02:50:08.423Z,10.70
2024-05-09T02:54:10.001Z,10.50
2024-05-09T02:58:11.671Z,10.60
2024-05-09T03:02:13.102Z,10.20
2024-05-09T03:06:14.166Z,10.60
2024-05-09T03:10:22.225Z,10.60
2024-05-09T03:14:18.472Z,10.60
2024-05-09T03:18:19.685Z,10.40
2024-05-09T03:22:20.681Z,10.20
2024-05-09T03:26:21.754Z,10.30
2024-05-09T03:30:36.058Z,10.20
2024-05-09T03:34:30.902Z,10.20
2024-05-09T03:38:38.993Z,10.30
2024-05-09T03:42:41.143Z,9.40
2024-05-09T03:46:42.088Z,9.80
2024-05-09T03:50:43.341Z,10.40
2024-05-09T03:54:47.961Z,10.30
2024-05-09T03:58:49.154Z,10.40
2024-05-09T04:02:50.333Z,10.20
2024-05-09T04:06:51.295Z,10.40
2024-05-09T04:10:52.417Z,10.50
2024-05-09T04:14:53.373Z,9.70
2024-05-09T04:18:54.456Z,9.70
2024-05-09T04:22:55.639Z,10.70
2024-05-09T04:26:56.748Z,10.80
2024-05-09T04:30:57.967Z,10.60
2024-05-09T04:34:58.953Z,10.70
2024-05-09T04:39:00.039Z,11.00
2024-05-09T04:43:01.025Z,11.10
2024-05-09T04:47:02.130Z,11.00
2024-05-09T04:51:05.691Z,11.30
2024-05-09T04:55:06.852Z,11.60
2024-05-09T04:59:07.895Z,11.70
2024-05-09T05:03:13.200Z,11.90
2024-05-09T05:07:13.628Z,12.20
2024-05-09T05:11:14.724Z,12.00
2024-05-09T05:15:15.884Z,12.50
2024-05-09T05:19:17.744Z,12.90
2024-05-09T05:23:20.179Z,13.20
2024-05-09T05:27:21.345Z,13.40
2024-05-09T05:31:22.354Z,13.70
2024-05-09T05:35:23.512Z,14.00
2024-05-09T05:39:24.760Z,14.30
2024-05-09T05:43:26.339Z,14.50
2024-05-09T05:47:27.409Z,15.00
2024-05-09T05:51:28.577Z,15.50
2024-05-09T05:55:29.704Z,15.90
2024-05-09T05:59:30.689Z,16.20
2024-05-09T06:03:31.873Z,18.50
2024-05-09T06:07:33.085Z,21.00
2024-05-09T06:11:34.150Z,21.30
2024-05-09T06:15:35.200Z,20.70
2024-05-09T06:19:36.307Z,20.50
2024-05-09T06:23:46.981Z,20.50
2024-05-09T06:27:48.808Z,20.20
2024-05-09T06:31:50.262Z,21.10
2024-05-09T06:35:53.293Z,21.50
2024-05-09T06:39:54.339Z,20.30
2024-05-09T06:43:55.350Z,19.70
2024-05-09T06:47:56.566Z,18.60
2024-05-09T06:51:57.579Z,16.90
2024-05-09T06:55:58.689Z,15.80
2024-05-09T06:59:59.975Z,15.80
2024-05-09T07:04:01.188Z,16.00
2024-05-09T07:08:03.751Z,16.30
2024-05-09T07:12:06.034Z,16.00
2024-05-09T07:16:07.186Z,16.20
2024-05-09T07:20:16.184Z,16.90
2024-05-09T07:24:13.106Z,17.80
2024-05-09T07:28:19.157Z,16.70
2024-05-09T07:32:20.382Z,17.50
2024-05-09T07:36:21.565Z,17.40
2024-05-09T07:40:32.300Z,18.50
2024-05-09T07:44:25.737Z,17.20
2024-05-09T07:50:00.622Z,18.10
2024-05-09T07:53:32.576Z,17.30
2024-05-09T07:56:32.815Z,17.00
2024-05-09T08:00:34.270Z,16.80
2024-05-09T08:04:35.491Z,17.10
2024-05-09T08:08:36.514Z,17.90
2024-05-09T08:12:37.642Z,17.40
2024-05-09T08:16:38.720Z,17.60
2024-05-09T08:20:41.308Z,18.00
2024-05-09T08:24:42.555Z,17.30
2024-05-09T08:28:43.525Z,18.30
2024-05-09T08:32:46.606Z,17.20
2024-05-09T08:36:47.968Z,17.40
2024-05-09T08:40:49.967Z,17.40
2024-05-09T08:44:51.583Z,16.60
2024-05-09T08:48:55.784Z,16.90
2024-05-09T08:52:56.964Z,17.00
2024-05-09T08:56:59.894Z,18.10
2024-05-09T09:01:03.325Z,17.90
2024-05-09T09:05:12.219Z,17.40
2024-05-09T09:09:13.838Z,17.20
2024-05-09T09:13:14.923Z,16.80
2024-05-09T09:17:16.837Z,17.40
2024-05-09T09:21:17.876Z,18.50
2024-05-09T09:25:20.300Z,19.00
2024-05-09T09:29:21.799Z,18.90
2024-05-09T09:33:23.055Z,18.30
2024-05-09T09:37:28.568Z,18.00
2024-05-09T09:41:32.071Z,17.70
2024-05-09T09:45:35.752Z,18.30
2024-05-09T09:49:37.436Z,19.30
2024-05-09T09:53:39.216Z,18.50
2024-05-09T09:57:43.071Z,18.60
2024-05-09T10:01:45.508Z,19.70
2024-05-09T10:05:47.557Z,18.10
2024-05-09T10:09:48.856Z,18.60
2024-05-09T10:13:50.866Z,18.30
2024-05-09T10:17:52.117Z,18.40
2024-05-09T10:22:03.469Z,17.80
2024-05-09T10:26:05.907Z,18.20
2024-05-09T10:30:14.374Z,18.60
2024-05-09T10:34:18.672Z,19.10
2024-05-09T10:38:20.111Z,19.90
2024-05-09T10:42:21.497Z,20.20
2024-05-09T10:46:23.699Z,20.80
2024-05-09T10:50:28.931Z,18.80
2024-05-09T10:54:58.081Z,18.20
2024-05-09T10:58:59.016Z,18.00
2024-05-09T11:03:00.462Z,19.60
2024-05-09T11:07:08.355Z,18.90
2024-05-09T11:11:10.257Z,21.60
2024-05-09T11:15:11.362Z,19.30
2024-05-09T11:19:13.579Z,20.80
2024-05-09T11:23:14.896Z,17.90
2024-05-09T11:27:15.885Z,18.00
2024-05-09T11:31:17.391Z,19.00
2024-05-09T11:35:18.990Z,20.30
2024-05-09T11:39:20.132Z,20.70
2024-05-09T11:43:21.354Z,19.70
2024-05-09T11:47:22.588Z,19.60
2024-05-09T11:51:23.808Z,21.60
2024-05-09T11:55:28.014Z,21.90
2024-05-09T11:59:28.353Z,18.80
2024-05-09T12:03:29.432Z,19.40
2024-05-09T12:07:30.691Z,20.80
2024-05-09T12:11:31.690Z,21.80
2024-05-09T12:15:34.804Z,24.20
2024-05-09T12:19:36.310Z,23.40
2024-05-09T12:23:37.415Z,23.60
2024-05-09T12:27:39.497Z,26.30
2024-05-09T12:31:40.499Z,22.90
2024-05-09T12:35:44.194Z,21.10
2024-05-09T12:39:44.431Z,20.80
2024-05-09T12:43:45.518Z,21.80
2024-05-09T12:47:46.866Z,22.70
2024-05-09T12:51:48.113Z,25.80
2024-05-09T12:55:56.707Z,22.10
2024-05-09T12:59:52.885Z,23.20
2024-05-09T13:03:54.279Z,25.40
2024-05-09T13:07:55.830Z,27.00
2024-05-09T13:11:56.993Z,26.60
2024-05-09T13:15:58.192Z,22.40
2024-05-09T13:19:59.322Z,21.80
2024-05-09T13:24:00.527Z,22.90
2024-05-09T13:28:02.637Z,23.60
2024-05-09T13:32:04.334Z,25.40
2024-05-09T13:36:06.558Z,22.30
2024-05-09T13:40:12.004Z,22.50
2024-05-09T13:44:10.951Z,25.90
2024-05-09T13:48:12.551Z,22.90
2024-05-09T13:52:13.964Z,24.80
2024-05-09T13:56:15.037Z,21.40
2024-05-09T14:00:27.392Z,21.00
2024-05-09T14:04:19.352Z,21.40
2024-05-09T14:08:21.055Z,22.10
2024-05-09T14:12:22.094Z,23.00
2024-05-09T14:16:23.275Z,22.90
2024-05-09T14:20:30.886Z,24.00
2024-05-09T14:24:27.252Z,22.70
2024-05-09T14:28:28.452Z,21.00
2024-05-09T14:32:29.580Z,21.80
2024-05-09T14:36:32.685Z,21.60
2024-05-09T14:44:36.512Z,23.50
2024-05-09T14:48:37.698Z,23.10
2024-05-09T14:52:38.787Z,21.70
2024-05-09T14:56:40.799Z,21.80
2024-05-09T15:00:46.075Z,21.40
2024-05-09T15:04:45.248Z,21.20
2024-05-09T15:08:50.173Z,22.40
2024-05-09T15:12:51.143Z,21.80
2024-05-09T15:16:52.377Z,21.70
2024-05-09T15:20:53.526Z,20.50
2024-05-09T15:24:54.487Z,19.90
2024-05-09T15:28:55.519Z,19.90
2024-05-09T15:32:56.653Z,21.20
2024-05-09T15:36:58.473Z,20.50
2024-05-09T15:40:59.522Z,20.80
2024-05-09T15:45:00.650Z,20.90
2024-05-09T15:49:02.001Z,20.80
2024-05-09T15:53:03.423Z,20.70
2024-05-09T15:57:04.863Z,21.10
2024-05-09T16:01:06.169Z,20.50
2024-05-09T16:05:07.564Z,21.00
2024-05-09T16:09:08.919Z,21.90
2024-05-09T16:13:10.056Z,20.20
2024-05-09T16:17:11.467Z,20.50
2024-05-09T16:21:12.446Z,20.20
2024-05-09T16:25:13.751Z,21.50
2024-05-09T16:29:14.943Z,20.70
2024-05-09T16:33:18.335Z,20.40
2024-05-09T16:37:19.859Z,20.40
2024-05-09T16:41:21.155Z,20.80
2024-05-09T16:45:22.144Z,20.00
2024-05-09T16:49:23.687Z,21.00
2024-05-09T16:53:25.858Z,20.50
2024-05-09T16:57:26.931Z,21.20
2024-05-09T17:01:30.020Z,21.60
2024-05-09T17:05:31.429Z,21.80
2024-05-09T17:09:32.628Z,21.80
2024-05-09T17:13:35.588Z,20.90
2024-05-09T17:17:37.357Z,19.70
2024-05-09T17:21:38.543Z,19.80
2024-05-09T17:25:39.851Z,20.00
2024-05-09T17:29:41.366Z,19.90
2024-05-09T17:33:42.617Z,19.90
2024-05-09T17:37:43.752Z,20.00
2024-05-09T17:41:44.910Z,19.60
2024-05-09T17:45:46.274Z,19.90
2024-05-09T17:49:47.423Z,20.20
2024-05-09T17:53:48.492Z,20.40
2024-05-09T17:57:49.980Z,20.00
2024-05-09T18:01:51.255Z,20.10
2024-05-09T18:05:52.468Z,19.60
2024-05-09T18:09:53.626Z,19.90
2024-05-09T18:13:55.751Z,19.60
2024-05-09T18:17:57.170Z,20.10
2024-05-09T18:21:58.327Z,19.60
2024-05-09T18:25:59.464Z,20.30
2024-05-09T18:30:00.723Z,20.40
2024-05-09T18:34:02.099Z,19.50
2024-05-09T18:38:04.295Z,19.50
2024-05-09T18:42:05.372Z,19.90
2024-05-09T18:46:07.058Z,18.80
2024-05-09T18:50:14.636Z,18.70
2024-05-09T18:54:12.130Z,19.30
2024-05-09T18:58:13.392Z,19.90
2024-05-09T19:02:14.727Z,20.10
2024-05-09T19:06:16.173Z,20.30
2024-05-09T19:10:22.601Z,20.00
2024-05-09T19:14:20.394Z,19.30
2024-05-09T19:18:21.752Z,19.60
2024-05-09T19:22:22.857Z,19.10
2024-05-09T19:26:24.677Z,19.30
2024-05-09T19:30:34.558Z,19.20
2024-05-09T19:34:28.948Z,19.10
2024-05-09T19:38:30.310Z,18.90
2024-05-09T19:42:31.586Z,18.70
2024-05-09T19:46:32.654Z,18.30
2024-05-09T19:50:41.236Z,18.60
2024-05-09T19:54:36.567Z,18.20
2024-05-09T19:58:38.128Z,17.70
2024-05-09T20:02:39.428Z,17.60
2024-05-09T20:06:40.958Z,16.00
2024-05-09T20:10:42.352Z,17.10
2024-05-09T20:14:43.751Z,17.20
2024-05-09T20:18:45.066Z,17.60
2024-05-09T20:22:46.092Z,17.50
2024-05-09T20:26:47.216Z,17.50
2024-05-09T20:30:48.645Z,17.20
2024-05-09T20:34:50.893Z,17.10
2024-05-09T20:38:51.905Z,17.10
2024-05-09T20:42:52.870Z,16.90
2024-05-09T20:46:53.873Z,16.90
2024-05-09T20:50:54.961Z,16.70
2024-05-09T20:54:56.057Z,16.80
2024-05-09T20:58:57.641Z,16.60
2024-05-09T21:02:58.929Z,16.50
2024-05-09T21:07:00.067Z,16.40
2024-05-09T21:11:01.515Z,16.20
2024-05-09T21:15:02.912Z,16.10
2024-05-09T21:19:03.968Z,16.00
2024-05-09T21:23:05.016Z,15.90
2024-05-09T21:27:06.048Z,16.00
2024-05-09T21:31:08.272Z,15.90
2024-05-09T21:35:09.408Z,15.70
2024-05-09T21:39:10.547Z,15.70
2024-05-09T21:43:11.837Z,15.70
2024-05-09T21:47:13.026Z,15.60
2024-05-09T21:51:14.669Z,15.40
2024-05-09T21:55:15.983Z,15.20
2024-05-09T21:59:17.158Z,15.30
2024-05-09T22:03:18.219Z,15.20
2024-05-09T22:07:19.513Z,15.20
2024-05-09T22:11:20.498Z,15.30
2024-05-09T22:15:21.592Z,15.20
2024-05-09T22:19:22.691Z,15.00
2024-05-09T22:23:23.958Z,15.00
2024-05-09T22:27:25.184Z,15.00
2024-05-09T22:31:26.198Z,15.00
2024-05-09T22:35:27.402Z,15.00
2024-05-09T22:39:28.363Z,14.80
2024-05-09T22:43:29.386Z,14.70
2024-05-09T22:47:30.526Z,14.60
2024-05-09T22:51:32.481Z,14.50
2024-05-09T22:55:33.429Z,14.30
2024-05-09T22:59:34.526Z,14.40
2024-05-09T23:03:37.973Z,14.30
2024-05-09T23:07:39.037Z,14.50
2024-05-09T23:11:41.317Z,13.60
2024-05-09T23:15:42.277Z,14.30
2024-05-09T23:19:43.323Z,14.30
2024-05-09T23:23:44.375Z,14.00
2024-05-09T23:27:45.391Z,14.00
2024-05-09T23:31:46.472Z,13.90
2024-05-09T23:35:47.417Z,13.80
2024-05-09T23:39:48.468Z,13.80
2024-05-09T23:43:49.864Z,13.70
2024-05-09T23:47:51.380Z,13.70
2024-05-09T23:51:52.671Z,13.20
2024-05-09T23:55:53.824Z,13.30
2024-05-09T23:59:56.397Z,13.20
